createdAt,value
2022-09-05T00:02:24.750Z,2.60
2022-09-05T00:06:32.439Z,3.42
2022-09-05T00:11:16.790Z,2.75
2022-09-05T00:15:32.770Z,2.83
2022-09-05T00:24:26.945Z,2.55
2022-09-05T00:24:32.146Z,3.33
2022-09-05T00:29:31.598Z,2.60
2022-09-05T00:34:04.437Z,2.50
2022-09-05T00:38:15.608Z,2.55
2022-09-05T00:42:19.285Z,3.40
2022-09-05T00:46:32.069Z,2.92
2022-09-05T00:50:57.573Z,2.47
2022-09-05T00:55:36.883Z,3.65
2022-09-05T01:00:01.600Z,3.13
2022-09-05T01:04:29.362Z,2.40
2022-09-05T01:08:42.682Z,3.35
2022-09-05T01:12:52.694Z,2.40
2022-09-05T01:17:12.311Z,2.72
2022-09-05T01:21:20.013Z,4.35
2022-09-05T01:25:44.110Z,3.28
2022-09-05T01:29:59.018Z,2.78
2022-09-05T01:34:18.081Z,2.97
2022-09-05T01:39:05.666Z,2.72
2022-09-05T01:43:21.903Z,2.72
2022-09-05T01:47:42.975Z,2.67
2022-09-05T01:52:10.029Z,3.25
2022-09-05T01:56:37.293Z,3.90
2022-09-05T02:01:25.465Z,3.30
2022-09-05T02:05:51.704Z,4.10
2022-09-05T02:10:14.444Z,3.10
2022-09-05T02:14:42.677Z,3.63
2022-09-05T02:19:02.878Z,3.90
2022-09-05T02:23:34.795Z,3.35
2022-09-05T02:28:05.740Z,2.65
2022-09-05T02:32:23.749Z,2.78
2022-09-05T02:36:42.990Z,2.60
2022-09-05T02:45:07.477Z,4.40
2022-09-05T02:45:39.256Z,4.05
2022-09-05T02:52:30.630Z,9.15
2022-09-05T02:57:33.714Z,4.05
2022-09-05T02:59:09.221Z,4.88
2022-09-05T03:03:36.603Z,3.60
2022-09-05T03:08:17.822Z,4.20
2022-09-05T03:12:29.376Z,4.85
2022-09-05T03:17:09.316Z,3.10
2022-09-05T03:21:29.566Z,4.63
2022-09-05T03:25:53.429Z,4.80
2022-09-05T03:30:08.282Z,4.57
2022-09-05T03:34:24.751Z,8.40
2022-09-05T03:39:05.342Z,4.30
2022-09-05T03:43:22.995Z,4.32
2022-09-05T03:47:30.503Z,3.67
2022-09-05T03:57:05.529Z,5.13
2022-09-05T03:57:13.964Z,5.20
2022-09-05T04:03:21.556Z,5.43
2022-09-05T04:08:16.469Z,4.65
2022-09-05T04:10:55.438Z,4.63
2022-09-05T04:15:17.667Z,5.45
2022-09-05T04:19:26.724Z,4.35
2022-09-05T04:23:41.393Z,4.78
2022-09-05T04:28:21.939Z,3.58
2022-09-05T04:32:28.624Z,8.00
2022-09-05T04:36:36.616Z,3.88
2022-09-05T04:40:45.902Z,3.58
2022-09-05T04:45:00.608Z,5.22
2022-09-05T04:49:24.635Z,3.28
2022-09-05T04:53:57.064Z,4.22
2022-09-05T04:58:01.015Z,5.63
2022-09-05T05:06:01.606Z,5.65
2022-09-05T05:06:46.943Z,4.00
2022-09-05T05:16:26.550Z,6.95
2022-09-05T05:18:08.808Z,9.18
2022-09-05T05:24:13.223Z,5.43
2022-09-05T05:28:24.872Z,4.10
2022-09-05T05:32:46.102Z,5.65
2022-09-05T05:37:16.674Z,6.80
2022-09-05T05:41:24.662Z,4.55
2022-09-05T05:45:29.977Z,4.13
2022-09-05T05:49:45.772Z,4.60
2022-09-05T05:54:13.126Z,4.20
2022-09-05T05:58:39.151Z,4.35
2022-09-05T06:03:25.893Z,4.68
2022-09-05T06:09:30.417Z,7.65
2022-09-05T06:15:03.988Z,4.82
2022-09-05T06:17:33.733Z,4.30
2022-09-05T06:22:21.442Z,7.10
2022-09-05T06:26:37.913Z,3.85
2022-09-05T06:35:06.193Z,7.05
2022-09-05T06:39:46.528Z,5.65
2022-09-05T06:44:31.234Z,4.10
2022-09-05T06:49:28.957Z,5.40
2022-09-05T06:53:45.791Z,4.40
2022-09-05T06:58:18.061Z,6.32
2022-09-05T07:03:04.346Z,4.07
2022-09-05T07:07:11.796Z,5.53
2022-09-05T07:11:20.238Z,4.63
2022-09-05T07:15:52.406Z,6.53
2022-09-05T07:20:00.799Z,4.72
2022-09-05T07:24:22.120Z,4.72
2022-09-05T07:28:41.909Z,7.60
2022-09-05T07:32:53.358Z,10.98
2022-09-05T07:37:15.474Z,8.93
2022-09-05T07:41:26.306Z,6.90
2022-09-05T07:45:29.876Z,4.57
2022-09-05T07:49:34.526Z,7.57
2022-09-05T07:56:55.221Z,10.10
2022-09-05T07:58:08.390Z,8.35
2022-09-05T08:02:12.790Z,7.17
2022-09-05T08:06:45.025Z,6.72
2022-09-05T08:11:24.613Z,9.25
2022-09-05T08:16:00.677Z,7.38
2022-09-05T08:20:09.452Z,5.60
2022-09-05T08:24:26.398Z,10.13
2022-09-05T08:28:40.431Z,7.35
2022-09-05T08:33:10.207Z,7.45
2022-09-05T08:37:21.518Z,6.70
2022-09-05T08:41:49.314Z,6.30
2022-09-05T08:46:46.258Z,8.80
2022-09-05T08:50:50.954Z,5.53
2022-09-05T08:55:35.901Z,6.85
2022-09-05T09:00:02.725Z,5.38
2022-09-05T09:04:06.753Z,6.88
2022-09-05T09:08:40.630Z,6.47
2022-09-05T09:13:17.530Z,4.85
2022-09-05T09:21:46.341Z,5.85
2022-09-05T09:26:11.471Z,6.28
2022-09-05T09:30:14.662Z,5.40
2022-09-05T09:34:39.544Z,11.50
2022-09-05T09:38:46.863Z,5.40
2022-09-05T09:42:57.479Z,7.32
2022-09-05T09:46:59.681Z,5.90
2022-09-05T09:51:34.580Z,5.47
2022-09-05T09:56:13.237Z,4.53
2022-09-05T10:00:21.007Z,3.42
2022-09-05T10:10:39.724Z,6.22
2022-09-05T10:10:48.642Z,5.68
2022-09-05T10:14:47.753Z,4.05
2022-09-05T10:20:07.383Z,5.50
2022-09-05T10:24:21.714Z,5.28
2022-09-05T10:28:42.760Z,5.28
2022-09-05T10:35:22.715Z,4.18
2022-09-05T10:37:41.174Z,5.55
2022-09-05T10:42:02.570Z,8.03
2022-09-05T10:46:49.597Z,4.28
2022-09-05T10:51:26.862Z,5.78
2022-09-05T10:55:41.950Z,4.18
2022-09-05T11:02:19.266Z,4.68
2022-09-05T11:04:46.711Z,4.18
2022-09-05T11:09:41.619Z,5.28
2022-09-05T11:13:45.946Z,3.47
2022-09-05T11:18:05.752Z,3.72
2022-09-05T11:22:22.210Z,3.38
2022-09-05T11:26:58.236Z,4.28
2022-09-05T11:31:18.035Z,3.85
2022-09-05T11:40:08.637Z,3.72
2022-09-05T11:40:51.103Z,3.25
2022-09-05T11:45:13.791Z,3.90
2022-09-05T11:49:43.347Z,4.53
2022-09-05T11:54:19.831Z,3.45
2022-09-05T11:58:51.258Z,3.33
2022-09-05T12:03:57.661Z,4.85
2022-09-05T12:08:18.112Z,3.38
2022-09-05T12:12:46.564Z,3.30
2022-09-05T12:17:16.823Z,3.95
2022-09-05T12:21:38.111Z,7.05
2022-09-05T12:27:42.868Z,3.00
2022-09-05T12:30:32.812Z,3.17
2022-09-05T12:36:04.061Z,3.03
2022-09-05T12:40:25.444Z,3.65
2022-09-05T12:44:39.883Z,2.92
2022-09-05T12:48:39.208Z,3.22
2022-09-05T12:52:51.326Z,3.08
2022-09-05T13:01:23.363Z,5.40
2022-09-05T13:03:11.190Z,2.90
2022-09-05T13:06:24.983Z,3.13
2022-09-05T13:13:48.582Z,3.70
2022-09-05T13:15:26.982Z,2.63
2022-09-05T13:19:44.099Z,3.47
2022-09-05T13:24:12.029Z,3.13
2022-09-05T13:28:15.124Z,3.08
2022-09-05T13:38:05.800Z,3.55
2022-09-05T13:38:20.016Z,2.28
2022-09-05T13:41:27.435Z,2.30
2022-09-05T13:45:31.985Z,2.75
2022-09-05T13:49:45.810Z,2.67
2022-09-05T13:53:53.318Z,2.70
2022-09-05T13:58:07.190Z,3.53
2022-09-05T14:07:44.318Z,2.55
2022-09-05T14:12:11.481Z,2.95
2022-09-05T14:16:28.835Z,2.70
2022-09-05T14:21:02.278Z,2.90
2022-09-05T14:25:22.990Z,3.28
2022-09-05T14:29:39.074Z,2.22
2022-09-05T14:37:51.909Z,2.85
2022-09-05T14:39:09.320Z,2.85
2022-09-05T14:43:38.467Z,2.40
2022-09-05T14:47:55.058Z,2.60
2022-09-05T14:51:58.377Z,3.03
2022-09-05T14:56:44.385Z,3.08
2022-09-05T15:02:50.548Z,2.22
2022-09-05T15:04:55.104Z,3.10
2022-09-05T15:12:14.551Z,3.28
2022-09-05T15:13:26.102Z,2.75
2022-09-05T15:17:29.006Z,2.88
2022-09-05T15:21:40.550Z,3.10
2022-09-05T15:25:47.006Z,2.47
2022-09-05T15:29:55.805Z,2.83
2022-09-05T15:34:20.402Z,2.22
2022-09-05T15:38:38.729Z,2.13
2022-09-05T15:42:56.606Z,2.50
2022-09-05T15:47:05.189Z,2.50
2022-09-05T15:51:18.995Z,2.42
2022-09-05T15:55:23.819Z,2.25
2022-09-05T15:59:32.786Z,2.58
2022-09-05T16:08:43.393Z,2.63
2022-09-05T16:10:45.941Z,2.53
2022-09-05T16:12:44.657Z,1.83
2022-09-05T16:23:15.749Z,2.13
2022-09-05T16:23:29.889Z,1.88
2022-09-05T16:25:48.476Z,2.40
2022-09-05T16:29:51.642Z,2.65
2022-09-05T16:33:53.211Z,1.88
2022-09-05T16:38:05.463Z,1.83
2022-09-05T16:42:46.712Z,1.85
2022-09-05T16:47:04.033Z,1.55
2022-09-05T16:55:44.291Z,2.20
2022-09-05T16:59:46.821Z,1.80
2022-09-05T17:04:02.136Z,1.90
2022-09-05T17:08:18.109Z,2.40
2022-09-05T17:12:29.882Z,1.90
2022-09-05T17:16:41.656Z,1.40
2022-09-05T17:20:48.279Z,1.88
2022-09-05T17:29:25.249Z,1.88
2022-09-05T17:34:20.782Z,1.88
2022-09-05T17:38:33.439Z,1.85
2022-09-05T17:42:49.333Z,1.73
2022-09-05T17:46:58.464Z,2.80
2022-09-05T17:51:00.065Z,2.00
2022-09-05T17:55:12.687Z,1.42
2022-09-05T17:59:17.196Z,1.80
2022-09-05T18:03:47.880Z,2.03
2022-09-05T18:07:49.427Z,1.83
2022-09-05T18:12:37.959Z,2.05
2022-09-05T18:17:36.366Z,1.55
2022-09-05T18:21:22.356Z,1.55
2022-09-05T18:25:28.894Z,2.00
2022-09-05T18:29:58.608Z,2.03
2022-09-05T18:34:16.215Z,1.73
2022-09-05T18:38:50.065Z,1.63
2022-09-05T18:42:51.535Z,1.67
2022-09-05T18:46:58.360Z,1.70
2022-09-05T18:51:15.611Z,1.70
2022-09-05T18:56:10.730Z,1.50
2022-09-05T18:59:55.343Z,1.80
2022-09-05T19:04:01.500Z,1.73
2022-09-05T19:08:12.515Z,1.67
2022-09-05T19:12:38.853Z,1.60
2022-09-05T19:16:47.850Z,1.70
2022-09-05T19:20:56.032Z,1.80
2022-09-05T19:24:58.407Z,1.73
2022-09-05T19:36:46.444Z,1.50
2022-09-05T19:36:55.836Z,1.52
2022-09-05T19:37:51.277Z,1.73
2022-09-05T19:47:27.464Z,1.63
2022-09-05T19:47:44.713Z,1.42
2022-09-05T19:50:38.435Z,1.45
2022-09-05T19:54:40.407Z,1.55
2022-09-05T19:58:45.724Z,1.42
2022-09-05T20:02:53.801Z,1.50
2022-09-05T20:06:55.471Z,1.50
2022-09-05T20:11:02.290Z,1.67
2022-09-05T20:15:25.178Z,2.20
2022-09-05T20:19:37.543Z,1.38
2022-09-05T20:23:49.175Z,1.27
2022-09-05T20:27:51.171Z,1.60
2022-09-05T20:31:52.938Z,1.50
2022-09-05T20:40:35.900Z,1.23
2022-09-05T20:44:50.947Z,1.35
2022-09-05T20:54:08.675Z,1.50
2022-09-05T20:54:26.605Z,1.48
2022-09-05T20:57:52.534Z,1.40
2022-09-05T21:02:06.403Z,1.55
2022-09-05T21:06:29.408Z,1.60
2022-09-05T21:10:54.838Z,1.55
2022-09-05T21:15:20.491Z,1.58
2022-09-05T21:19:39.165Z,1.50
2022-09-05T21:23:42.142Z,1.48
2022-09-05T21:27:55.738Z,1.75
2022-09-05T21:32:00.360Z,1.40
2022-09-05T21:36:04.100Z,1.30
2022-09-05T21:40:06.243Z,1.30
2022-09-05T21:47:34.727Z,1.75
2022-09-05T21:48:29.711Z,1.20
2022-09-05T21:52:32.671Z,1.17
2022-09-05T21:59:22.792Z,1.83
2022-09-05T22:01:19.996Z,1.40
2022-09-05T22:05:41.547Z,1.60
2022-09-05T22:09:43.698Z,1.40
2022-09-05T22:13:46.583Z,1.40
2022-09-05T22:17:50.338Z,1.33
2022-09-05T22:21:55.346Z,1.50
2022-09-05T22:25:59.087Z,1.42
2022-09-05T22:30:01.865Z,2.15
2022-09-05T22:34:03.625Z,1.58
2022-09-05T22:38:12.453Z,1.75
2022-09-05T22:42:15.098Z,1.38
2022-09-05T22:46:16.834Z,1.25
2022-09-05T22:50:18.635Z,1.15
2022-09-05T22:54:20.344Z,1.67
2022-09-05T22:58:22.089Z,1.23
2022-09-05T23:02:23.803Z,1.48
2022-09-05T23:06:25.574Z,1.42
2022-09-05T23:10:29.217Z,1.42
2022-09-05T23:14:31.045Z,1.88
2022-09-05T23:18:33.190Z,1.35
2022-09-05T23:22:38.954Z,1.23
2022-09-05T23:26:40.614Z,1.75
2022-09-05T23:30:42.390Z,1.30
2022-09-05T23:34:44.024Z,1.48
2022-09-05T23:38:45.647Z,1.10
2022-09-05T23:42:54.781Z,1.52
2022-09-05T23:46:56.451Z,1.08
2022-09-05T23:51:03.827Z,1.27
2022-09-05T23:55:06.155Z,1.38
2022-09-05T23:59:07.768Z,1.40
